Mansfield, Louisiana
Current Conditions -  °F | °C
As of 5:56 PM on Friday 19 Dec 2014 (Local Time) from KSHV Reporting Station
Overcast Overcast  
Wind Chill: 44°   Ceiling: 1000
Heat Index: 48°   Visibility: 10mi
Dew Point: 45°   Wind: 9mph
Humidity: 89%   Direction: 20°NNE
Pressure: 30.15"   Gusts: NA
Location:  32.04°N, 93.71°W
Report Text: KSHV 192356Z 02008KT 10SM BKN010 BKN015 OVC025 09/07 A3015 RMK AO2 SLP209 60002 T00890072 10106 20083 53012
Loading
Personal Weather Stations






























Interactive Weather Map New forecast layout! Learn more

10-Day Weather Forecast

Advertisements
Track Severe Weather on mobile